Time;durP1;ratioP1;P1;durP2;ratioP2;P2;SDS_P1;SDS_P2;PMS_P1;PMS_P2;Temp;Humidity;BMP_temperature;BMP_pressure;BME280_temperature;BME280_humidity;BME280_pressure;Samples;Min_cycle;Max_cycle;Signal;HPM_P1;HPM_P2
2023/01/28 00:01:47;;;;;;;15.47;13.97;;;2.00;92.00;;;;;;5062567;28;20049;-80
2023/01/28 00:04:13;;;;;;;14.67;13.20;;;2.00;92.20;;;;;;5058834;28;20113;-82
2023/01/28 00:06:41;;;;;;;15.43;13.93;;;2.00;92.30;;;;;;5058544;28;20048;-83
2023/01/28 00:09:07;;;;;;;14.52;13.02;;;2.00;92.30;;;;;;5057701;28;20044;-83
2023/01/28 00:11:33;;;;;;;14.83;13.43;;;2.00;92.40;;;;;;5057104;28;20036;-80
2023/01/28 00:13:59;;;;;;;13.50;12.20;;;2.00;92.20;;;;;;5057915;28;20842;-81
2023/01/28 00:16:26;;;;;;;12.37;11.20;;;2.00;91.90;;;;;;5060055;28;20075;-81
2023/01/28 00:18:52;;;;;;;11.40;10.30;;;2.00;91.90;;;;;;5060923;28;20041;-82
2023/01/28 00:21:18;;;;;;;12.57;11.37;;;1.90;91.80;;;;;;5053899;28;20084;-81
2023/01/28 00:23:54;;;;;;;10.00;9.10;;;2.00;91.80;;;;;;5062782;28;20040;-78
2023/01/28 00:26:21;;;;;;;11.10;10.00;;;1.90;91.70;;;;;;5057494;28;20167;-79
2023/01/28 00:28:47;;;;;;;11.30;10.30;;;1.90;91.70;;;;;;5059899;28;20040;-79
2023/01/28 00:31:24;;;;;;;13.33;10.27;;;1.80;92.00;;;;;;5057797;28;20510;-80
2023/01/28 00:33:50;;;;;;;12.87;10.27;;;1.90;91.30;;;;;;5057181;28;20084;-80
2023/01/28 00:36:17;;;;;;;11.50;10.30;;;1.90;91.30;;;;;;5058604;28;20153;-79
2023/01/28 00:38:48;;;;;;;10.93;9.77;;;2.00;91.60;;;;;;5054796;28;20040;-80
2023/01/28 00:41:16;;;;;;;12.90;11.70;;;1.90;91.60;;;;;;5090214;28;20037;-80
2023/01/28 00:43:43;;;;;;;12.88;11.57;;;2.00;91.80;;;;;;5064427;28;20482;-79
2023/01/28 00:46:11;;;;;;;13.00;11.70;;;2.00;92.00;;;;;;5063784;28;20412;-81
2023/01/28 00:48:37;;;;;;;12.10;10.90;;;2.00;92.00;;;;;;5066803;28;20044;-81
2023/01/28 00:51:03;;;;;;;12.80;11.43;;;2.00;91.80;;;;;;5064431;28;20094;-80
2023/01/28 00:53:29;;;;;;;14.33;12.90;;;2.00;91.40;;;;;;5066349;28;20043;-80
2023/01/28 00:55:55;;;;;;;14.00;12.50;;;2.00;91.40;;;;;;5063485;28;20086;-80
2023/01/28 00:58:23;;;;;;;15.33;13.20;;;2.00;91.40;;;;;;5064238;28;20052;-81
2023/01/28 01:00:49;;;;;;;15.90;14.20;;;2.00;91.70;;;;;;5058900;28;20037;-81
2023/01/28 01:03:16;;;;;;;14.60;13.07;;;2.00;91.90;;;;;;5067780;28;20036;-80
2023/01/28 01:05:41;;;;;;;15.40;13.80;;;2.00;92.00;;;;;;5061919;28;20054;-80
2023/01/28 01:08:07;;;;;;;15.10;13.10;;;2.00;91.80;;;;;;5063843;28;20486;-81
2023/01/28 01:10:33;;;;;;;15.47;13.70;;;2.00;91.90;;;;;;5064670;28;20048;-80
2023/01/28 01:12:59;;;;;;;15.30;13.70;;;2.00;91.90;;;;;;5060100;28;20123;-80
2023/01/28 01:15:25;;;;;;;15.10;13.50;;;2.00;91.80;;;;;;5061211;28;20040;-80
2023/01/28 01:17:51;;;;;;;14.10;12.70;;;2.00;91.90;;;;;;5051881;28;20037;-81
2023/01/28 01:20:20;;;;;;;13.77;12.47;;;2.00;92.00;;;;;;5055233;28;20072;-81
2023/01/28 01:22:46;;;;;;;17.52;13.30;;;2.00;92.00;;;;;;5057561;28;20055;-84
2023/01/28 01:25:13;;;;;;;15.43;12.77;;;2.00;91.90;;;;;;5057715;28;20033;-81
2023/01/28 01:27:39;;;;;;;15.23;13.53;;;2.00;91.60;;;;;;5058738;28;20041;-80
2023/01/28 01:30:07;;;;;;;15.33;13.10;;;2.00;91.80;;;;;;5060839;28;20052;-81
2023/01/28 01:32:33;;;;;;;14.87;13.13;;;2.00;91.70;;;;;;5057069;28;20428;-80
2023/01/28 01:35:00;;;;;;;15.60;13.13;;;2.00;91.80;;;;;;5056227;28;20044;-81
2023/01/28 01:37:26;;;;;;;15.40;13.47;;;2.00;91.80;;;;;;5059517;28;20515;-81
2023/01/28 01:39:51;;;;;;;15.43;13.17;;;2.00;91.80;;;;;;5056477;28;20138;-81
2023/01/28 01:42:17;;;;;;;14.27;12.80;;;2.00;91.90;;;;;;5056457;28;20135;-81
2023/01/28 01:44:59;;;;;;;16.60;12.73;;;2.00;92.00;;;;;;5055056;28;20041;-81
2023/01/28 01:47:40;;;;;;;13.20;11.80;;;2.00;92.00;;;;;;5059746;28;20059;-80
2023/01/28 01:50:31;;;;;;;16.33;12.03;;;1.90;91.90;;;;;;5059229;28;20106;-81
2023/01/28 01:53:06;;;;;;;15.57;12.00;;;2.00;91.90;;;;;;5055799;28;20036;-80
2023/01/28 01:55:33;;;;;;;14.37;11.70;;;2.00;92.00;;;;;;5058947;28;20136;-84
2023/01/28 01:58:07;;;;;;;11.13;9.90;;;1.90;91.90;;;;;;5054757;28;20033;-80
2023/01/28 02:00:32;;;;;;;10.47;9.37;;;1.90;91.90;;;;;;5058355;28;20040;-82
2023/01/28 02:02:58;;;;;;;11.37;10.17;;;1.90;91.90;;;;;;5059315;28;20047;-81
2023/01/28 02:05:24;;;;;;;11.47;9.50;;;2.00;91.70;;;;;;5057072;28;20044;-80
2023/01/28 02:07:54;;;;;;;10.07;9.07;;;1.90;91.70;;;;;;5055429;28;20040;-81
2023/01/28 02:10:21;;;;;;;10.93;9.10;;;2.00;91.60;;;;;;5058800;28;20048;-81
2023/01/28 02:12:55;;;;;;;9.73;8.67;;;2.00;91.20;;;;;;5059580;28;20036;-79
2023/01/28 02:15:23;;;;;;;10.63;9.40;;;1.90;91.30;;;;;;5060901;28;20072;-80
2023/01/28 02:17:50;;;;;;;10.00;9.00;;;1.90;91.00;;;;;;5066151;28;20047;-81
2023/01/28 02:20:23;;;;;;;10.60;9.53;;;1.90;91.30;;;;;;5054560;28;20040;-81
2023/01/28 02:22:57;;;;;;;10.57;9.47;;;1.90;91.30;;;;;;5055991;28;20052;-82
2023/01/28 02:25:57;;;;;;;12.87;10.37;;;1.90;91.20;;;;;;5055890;28;20036;-80
2023/01/28 02:28:26;;;;;;;13.00;10.67;;;1.90;91.20;;;;;;5057088;28;20049;-81
2023/01/28 02:31:14;;;;;;;12.05;10.07;;;1.90;91.30;;;;;;5055494;28;20056;-81
2023/01/28 02:33:52;;;;;;;11.15;9.80;;;1.90;91.40;;;;;;5051708;28;20048;-82
2023/01/28 02:36:25;;;;;;;9.90;8.90;;;1.90;91.30;;;;;;5057353;28;20515;-80
2023/01/28 02:38:53;;;;;;;10.20;9.07;;;1.90;91.40;;;;;;5060581;28;20040;-81
2023/01/28 02:41:27;;;;;;;11.13;9.33;;;1.90;91.40;;;;;;5056857;28;20048;-80
2023/01/28 02:43:52;;;;;;;10.17;8.80;;;1.90;91.50;;;;;;5057522;28;20047;-82
2023/01/28 02:49:22;;;;;;;10.83;9.50;;;1.90;91.20;;;;;;5053851;28;20040;-81
2023/01/28 02:52:08;;;;;;;10.43;9.07;;;1.90;91.30;;;;;;5056306;28;20040;-80
2023/01/28 02:54:59;;;;;;;10.73;9.60;;;1.90;91.40;;;;;;5055310;28;20057;-81
2023/01/28 02:57:38;;;;;;;11.57;8.37;;;1.90;91.50;;;;;;5057467;28;20174;-83
2023/01/28 03:00:08;;;;;;;10.40;8.82;;;1.90;91.60;;;;;;5083366;28;20497;-80
2023/01/28 03:02:41;;;;;;;12.00;9.47;;;1.90;91.60;;;;;;5054965;28;20059;-80
2023/01/28 03:05:26;;;;;;;10.67;9.57;;;1.90;91.70;;;;;;5057709;28;20075;-81
2023/01/28 03:07:52;;;;;;;10.63;9.37;;;1.90;91.80;;;;;;5050127;28;20513;-80
2023/01/28 03:10:22;;;;;;;10.43;9.23;;;1.90;91.90;;;;;;5053038;28;20037;-81
2023/01/28 03:38:47;;;;;;;11.43;9.90;;;1.90;92.70;;;;;;5059670;28;20040;-81
2023/01/28 03:41:20;;;;;;;13.63;11.07;;;1.90;92.50;;;;;;5055683;28;20910;-80
2023/01/28 03:43:46;;;;;;;13.07;10.20;;;1.90;92.50;;;;;;5053982;28;20915;-80
2023/01/28 03:46:12;;;;;;;13.47;10.33;;;1.90;92.60;;;;;;5054707;28;20127;-80
2023/01/28 03:48:38;;;;;;;12.07;10.20;;;1.80;92.60;;;;;;5058757;28;20523;-80
2023/01/28 03:51:03;;;;;;;13.10;10.73;;;1.80;92.60;;;;;;5058708;28;20471;-80
2023/01/28 03:53:29;;;;;;;12.40;10.60;;;1.80;92.80;;;;;;5061531;28;20040;-80
2023/01/28 03:55:57;;;;;;;16.30;11.53;;;1.80;92.90;;;;;;5057829;28;20040;-79
2023/01/28 03:58:45;;;;;;;12.55;10.70;;;1.80;93.00;;;;;;5059748;28;20492;-79
2023/01/28 04:01:11;;;;;;;11.70;10.30;;;1.70;93.00;;;;;;5061947;28;20040;-80
2023/01/28 04:03:37;;;;;;;13.73;11.60;;;1.70;93.10;;;;;;5060177;28;20041;-80
2023/01/28 04:06:05;;;;;;;13.57;10.83;;;1.70;93.10;;;;;;5057967;28;20039;-81
2023/01/28 04:08:31;;;;;;;16.13;12.25;;;1.70;93.10;;;;;;5056890;28;20044;-79
2023/01/28 04:10:57;;;;;;;13.33;10.67;;;1.80;93.20;;;;;;5057002;28;20401;-81
2023/01/28 04:13:23;;;;;;;11.87;10.60;;;1.80;93.20;;;;;;5056423;28;20043;-79
2023/01/28 04:15:48;;;;;;;13.17;11.30;;;1.80;93.20;;;;;;5059294;28;20143;-82
2023/01/28 04:18:14;;;;;;;11.60;10.40;;;1.80;93.20;;;;;;5061323;28;20090;-83
2023/01/28 04:20:40;;;;;;;12.60;10.50;;;1.80;93.10;;;;;;5055571;28;21403;-81
2023/01/28 04:23:06;;;;;;;11.73;10.53;;;1.80;93.00;;;;;;5057975;28;20041;-82
2023/01/28 04:25:32;;;;;;;24.17;17.13;;;1.80;92.90;;;;;;5058924;28;20040;-82
2023/01/28 04:27:58;;;;;;;13.53;11.13;;;1.80;93.00;;;;;;5059326;28;20535;-80
2023/01/28 04:30:25;;;;;;;13.27;11.53;;;1.80;93.10;;;;;;5061150;28;20045;-80
2023/01/28 04:32:50;;;;;;;11.47;10.03;;;1.80;93.00;;;;;;5061005;28;20063;-81
2023/01/28 04:35:17;;;;;;;11.27;10.07;;;1.80;92.90;;;;;;5058386;28;20056;-81
2023/01/28 04:37:43;;;;;;;13.03;10.43;;;1.80;92.90;;;;;;5060281;28;20396;-80
2023/01/28 04:40:10;;;;;;;13.93;10.93;;;1.70;92.90;;;;;;5065312;28;20032;-80
2023/01/28 04:42:36;;;;;;;14.90;11.57;;;1.70;92.90;;;;;;5061736;28;20052;-81
2023/01/28 04:45:01;;;;;;;13.40;11.30;;;1.70;93.00;;;;;;5062755;28;20033;-81
2023/01/28 04:47:27;;;;;;;13.17;11.27;;;1.70;93.10;;;;;;5068045;28;20127;-80
2023/01/28 04:49:52;;;;;;;13.17;11.73;;;1.60;93.20;;;;;;5063068;28;20036;-80
2023/01/28 04:52:18;;;;;;;12.83;10.87;;;1.60;93.10;;;;;;5060258;28;20056;-81
2023/01/28 04:54:44;;;;;;;12.83;10.90;;;1.60;93.10;;;;;;5054384;28;20033;-82
2023/01/28 04:57:09;;;;;;;15.77;10.93;;;1.60;93.00;;;;;;5057356;28;20563;-80
2023/01/28 04:59:35;;;;;;;12.10;10.67;;;1.60;92.80;;;;;;5054034;28;20048;-82
2023/01/28 05:02:01;;;;;;;11.63;10.43;;;1.60;93.00;;;;;;5056586;28;20056;-82
2023/01/28 05:04:26;;;;;;;13.40;11.43;;;1.60;93.30;;;;;;5037700;28;20044;-81
2023/01/28 05:06:52;;;;;;;15.30;13.30;;;1.70;93.40;;;;;;5055788;28;20053;-82
2023/01/28 05:09:18;;;;;;;12.83;10.70;;;1.60;93.40;;;;;;5053028;28;20090;-82
2023/01/28 05:11:43;;;;;;;12.03;10.70;;;1.60;93.30;;;;;;5059923;28;20128;-80
2023/01/28 05:14:09;;;;;;;13.77;11.60;;;1.60;93.20;;;;;;5055772;28;20036;-80
2023/01/28 05:16:34;;;;;;;15.70;12.00;;;1.60;93.30;;;;;;5058017;28;20036;-82
2023/01/28 05:19:01;;;;;;;12.13;10.30;;;1.60;93.30;;;;;;5057458;28;20052;-82
2023/01/28 05:21:27;;;;;;;12.87;10.37;;;1.60;93.20;;;;;;5053800;28;20044;-80
2023/01/28 05:23:53;;;;;;;14.03;11.10;;;1.60;93.20;;;;;;5057806;28;20049;-79
2023/01/28 05:26:19;;;;;;;13.57;10.77;;;1.60;93.10;;;;;;5057867;28;20063;-80
2023/01/28 05:28:44;;;;;;;12.33;10.97;;;1.60;93.10;;;;;;5056750;28;20036;-80
2023/01/28 05:31:10;;;;;;;11.73;10.47;;;1.60;93.20;;;;;;5056908;28;20138;-80
2023/01/28 05:33:36;;;;;;;16.23;12.07;;;1.60;92.90;;;;;;5059644;28;20055;-80
2023/01/28 05:36:02;;;;;;;12.40;11.10;;;1.60;93.20;;;;;;5057131;28;20041;-81
2023/01/28 05:38:28;;;;;;;13.13;10.23;;;1.60;93.20;;;;;;5054817;28;20037;-79
2023/01/28 05:40:54;;;;;;;13.93;9.97;;;1.60;93.00;;;;;;5058056;28;20056;-80
2023/01/28 05:43:19;;;;;;;15.90;10.57;;;1.60;93.10;;;;;;5038470;28;20056;-80
2023/01/28 05:45:46;;;;;;;11.50;10.17;;;1.60;93.20;;;;;;5055520;28;20167;-82
2023/01/28 05:48:12;;;;;;;11.33;10.13;;;1.60;93.30;;;;;;5057231;28;20044;-80
2023/01/28 05:50:38;;;;;;;14.03;10.67;;;1.60;93.10;;;;;;5054782;28;20028;-80
2023/01/28 05:53:07;;;;;;;12.63;11.27;;;1.60;93.10;;;;;;5054026;28;20131;-83
2023/01/28 05:55:32;;;;;;;12.63;11.27;;;1.60;93.10;;;;;;5056580;28;20438;-81
2023/01/28 05:57:58;;;;;;;12.93;11.00;;;1.60;93.10;;;;;;5058303;28;20033;-80
2023/01/28 06:00:23;;;;;;;13.77;11.10;;;1.60;93.30;;;;;;5056771;28;20123;-83
2023/01/28 06:02:52;;;;;;;16.87;11.70;;;1.50;93.20;;;;;;5057269;28;20861;-80
2023/01/28 06:05:18;;;;;;;12.98;11.35;;;1.50;93.40;;;;;;5051350;28;20471;-82
2023/01/28 06:07:45;;;;;;;12.47;10.70;;;1.50;93.30;;;;;;5056104;28;20111;-83
2023/01/28 06:10:11;;;;;;;11.77;10.50;;;1.60;93.20;;;;;;5057547;28;20492;-80
2023/01/28 06:12:37;;;;;;;13.20;11.10;;;1.50;93.20;;;;;;5058763;28;20044;-80
2023/01/28 06:15:03;;;;;;;12.57;10.83;;;1.50;93.20;;;;;;5053846;28;20145;-80
2023/01/28 06:17:28;;;;;;;13.27;11.57;;;1.60;93.30;;;;;;5058849;28;20068;-80
2023/01/28 06:19:54;;;;;;;13.10;10.50;;;1.50;93.20;;;;;;5057156;28;20419;-82
2023/01/28 06:22:20;;;;;;;14.80;12.30;;;1.60;93.00;;;;;;5057037;28;20067;-81
2023/01/28 06:24:45;;;;;;;13.30;11.33;;;1.50;93.00;;;;;;5056094;28;20041;-80
2023/01/28 06:27:11;;;;;;;14.37;11.10;;;1.60;93.10;;;;;;5058472;28;20067;-81
2023/01/28 06:29:37;;;;;;;14.53;11.70;;;1.60;93.10;;;;;;5058427;28;20542;-80
2023/01/28 06:32:02;;;;;;;14.20;11.37;;;1.60;93.10;;;;;;5056211;28;20115;-80
2023/01/28 06:34:28;;;;;;;16.43;11.03;;;1.60;93.00;;;;;;5055979;28;20040;-84
2023/01/28 06:36:53;;;;;;;15.17;11.43;;;1.60;93.00;;;;;;5053644;28;20037;-80
2023/01/28 06:39:23;;;;;;;14.27;11.83;;;1.60;93.10;;;;;;5056091;28;20066;-84
2023/01/28 06:41:49;;;;;;;12.43;10.30;;;1.60;93.10;;;;;;5057651;28;20068;-81
2023/01/28 06:44:15;;;;;;;12.00;10.70;;;1.60;93.10;;;;;;5061665;28;20049;-80
2023/01/28 06:46:41;;;;;;;13.00;10.53;;;1.60;93.10;;;;;;5063311;28;20055;-81
2023/01/28 06:49:06;;;;;;;12.13;9.77;;;1.60;93.10;;;;;;5061093;28;20474;-80
2023/01/28 06:51:32;;;;;;;12.73;9.90;;;1.60;93.10;;;;;;5063678;28;20036;-81
2023/01/28 06:53:58;;;;;;;11.80;10.27;;;1.60;93.10;;;;;;5059975;28;20066;-80
2023/01/28 06:56:23;;;;;;;12.73;10.77;;;1.60;93.00;;;;;;5069472;28;20036;-83
2023/01/28 06:58:49;;;;;;;11.53;10.10;;;1.70;93.20;;;;;;5063027;28;20033;-81
2023/01/28 07:01:15;;;;;;;14.43;10.30;;;1.70;93.10;;;;;;5052408;28;20131;-80
2023/01/28 07:03:40;;;;;;;13.53;11.00;;;1.70;93.00;;;;;;5054427;28;20037;-83
2023/01/28 07:06:06;;;;;;;12.73;10.83;;;1.70;93.10;;;;;;5063702;28;20555;-82
2023/01/28 07:08:32;;;;;;;14.30;10.27;;;1.60;93.20;;;;;;5066560;28;20698;-82
2023/01/28 07:11:00;;;;;;;12.40;10.57;;;1.60;93.10;;;;;;5069813;28;20036;-83
2023/01/28 07:13:26;;;;;;;13.40;9.97;;;1.70;93.30;;;;;;5067609;28;20105;-86
2023/01/28 07:18:55;;;;;;;12.77;10.57;;;1.60;93.20;;;;;;5057185;28;20035;-81
2023/01/28 07:21:20;;;;;;;15.63;10.50;;;1.60;93.30;;;;;;5065507;28;20407;-80
2023/01/28 07:23:46;;;;;;;22.97;14.17;;;1.60;93.30;;;;;;5067665;28;20044;-80
2023/01/28 07:26:11;;;;;;;17.97;12.83;;;1.50;93.20;;;;;;5067817;28;20476;-81
2023/01/28 07:28:37;;;;;;;13.00;11.17;;;1.50;93.30;;;;;;5063619;28;20036;-80
2023/01/28 07:31:02;;;;;;;13.17;9.53;;;1.50;93.40;;;;;;5060250;28;20047;-80
2023/01/28 07:33:28;;;;;;;12.03;10.53;;;1.60;93.60;;;;;;5057461;28;20154;-80
2023/01/28 07:35:54;;;;;;;11.87;10.57;;;1.60;93.40;;;;;;5056665;28;20084;-81
2023/01/28 07:38:19;;;;;;;12.97;11.17;;;1.50;93.40;;;;;;5056429;28;20044;-81
2023/01/28 07:40:45;;;;;;;13.10;10.90;;;1.40;93.40;;;;;;5058747;28;20126;-80
2023/01/28 07:43:11;;;;;;;15.43;11.80;;;1.30;93.50;;;;;;5060490;28;20051;-81
2023/01/28 07:45:37;;;;;;;14.17;11.90;;;1.20;93.50;;;;;;5059526;28;20040;-81
2023/01/28 07:48:05;;;;;;;13.00;11.63;;;1.10;93.50;;;;;;5058043;28;20450;-80
2023/01/28 07:50:33;;;;;;;13.52;11.57;;;1.10;93.60;;;;;;5057479;28;20051;-81
2023/01/28 07:53:02;;;;;;;16.58;12.50;;;1.00;93.60;;;;;;5055356;28;20048;-82
2023/01/28 07:55:28;;;;;;;15.60;11.68;;;0.90;93.70;;;;;;5057160;28;20040;-80
2023/01/28 07:57:55;;;;;;;15.50;13.30;;;0.90;93.80;;;;;;5056320;28;20058;-81
2023/01/28 08:00:22;;;;;;;15.50;12.67;;;0.90;93.80;;;;;;5054731;28;20048;-80
2023/01/28 08:02:49;;;;;;;17.70;12.80;;;0.90;94.00;;;;;;5059587;28;20068;-80
2023/01/28 08:05:17;;;;;;;16.13;13.40;;;0.80;94.00;;;;;;5059211;28;20049;-80
2023/01/28 08:07:43;;;;;;;19.27;13.37;;;0.80;94.10;;;;;;5056734;28;20870;-80
2023/01/28 08:10:10;;;;;;;19.13;13.37;;;0.80;94.10;;;;;;5051384;28;20048;-81
2023/01/28 08:12:35;;;;;;;18.30;13.80;;;0.90;94.30;;;;;;5059176;28;20040;-80
2023/01/28 08:15:01;;;;;;;20.07;14.50;;;0.90;94.70;;;;;;5058010;28;20137;-80
2023/01/28 08:17:27;;;;;;;18.93;14.13;;;0.90;94.40;;;;;;5057687;28;20090;-80
2023/01/28 08:19:52;;;;;;;18.77;15.23;;;0.90;94.30;;;;;;5057612;28;20066;-85
2023/01/28 08:22:23;;;;;;;19.33;14.97;;;1.00;94.40;;;;;;5056409;28;20048;-82
2023/01/28 08:24:48;;;;;;;17.43;13.57;;;1.10;94.30;;;;;;5053148;28;20040;-80
2023/01/28 08:27:14;;;;;;;19.00;14.30;;;1.00;94.10;;;;;;5057479;28;20036;-82
2023/01/28 08:29:39;;;;;;;18.73;14.80;;;1.10;94.20;;;;;;5057289;28;20074;-81
2023/01/28 08:32:05;;;;;;;20.83;15.50;;;1.10;94.30;;;;;;5056333;28;20151;-82
2023/01/28 08:34:31;;;;;;;18.10;14.00;;;1.10;94.30;;;;;;5053901;28;20071;-82
2023/01/28 08:36:56;;;;;;;18.70;14.33;;;1.20;94.30;;;;;;5055964;28;20032;-82
2023/01/28 08:39:22;;;;;;;17.60;13.87;;;1.20;94.20;;;;;;5058011;28;20044;-83
2023/01/28 08:41:47;;;;;;;18.00;14.33;;;1.30;94.10;;;;;;5058280;28;20044;-82
2023/01/28 08:44:13;;;;;;;17.60;14.27;;;1.30;94.00;;;;;;5055555;28;20125;-79
2023/01/28 08:46:38;;;;;;;17.93;13.67;;;1.30;93.90;;;;;;5061498;28;20048;-81
2023/01/28 08:49:04;;;;;;;18.70;15.10;;;1.30;94.00;;;;;;5059069;28;20047;-81
2023/01/28 08:51:29;;;;;;;23.17;13.67;;;1.30;94.00;;;;;;5061300;28;20037;-81
2023/01/28 08:53:55;;;;;;;17.83;14.00;;;1.30;94.00;;;;;;5054090;28;20048;-84
2023/01/28 08:56:21;;;;;;;18.33;13.70;;;1.40;94.00;;;;;;5054940;28;20056;-82
2023/01/28 08:58:46;;;;;;;16.50;13.17;;;1.50;94.10;;;;;;5061418;28;20032;-81
2023/01/28 09:01:12;;;;;;;16.67;13.33;;;1.50;93.90;;;;;;5060383;28;20068;-81
2023/01/28 09:03:37;;;;;;;20.57;12.50;;;1.60;93.90;;;;;;5055090;28;20037;-84
2023/01/28 09:06:03;;;;;;;18.00;12.60;;;1.70;93.80;;;;;;5056011;28;20044;-83
2023/01/28 09:08:29;;;;;;;16.20;11.50;;;1.90;93.70;;;;;;5057675;28;20083;-81
2023/01/28 09:10:56;;;;;;;14.40;10.90;;;2.00;93.50;;;;;;5060970;28;20036;-81
2023/01/28 09:13:23;;;;;;;13.47;10.50;;;2.10;93.40;;;;;;5057104;28;20053;-82
2023/01/28 09:15:50;;;;;;;14.10;9.30;;;2.20;93.10;;;;;;5056534;28;20526;-86
2023/01/28 09:18:16;;;;;;;11.57;9.40;;;2.20;92.70;;;;;;5058305;28;21707;-80
2023/01/28 09:20:41;;;;;;;12.33;9.70;;;2.20;92.60;;;;;;5054841;28;20033;-82
2023/01/28 09:23:07;;;;;;;11.13;9.00;;;2.20;92.60;;;;;;5060365;28;20035;-84
2023/01/28 09:25:35;;;;;;;17.30;14.63;;;2.20;92.40;;;;;;5057168;28;20570;-85
2023/01/28 09:28:00;;;;;;;15.73;14.13;;;2.30;92.50;;;;;;5059106;28;20059;-82
2023/01/28 09:30:27;;;;;;;12.83;10.83;;;2.30;92.30;;;;;;5059692;28;20552;-86
2023/01/28 09:32:55;;;;;;;14.73;13.10;;;2.40;92.10;;;;;;5057035;28;20135;-82
2023/01/28 09:35:21;;;;;;;12.27;10.40;;;2.40;92.00;;;;;;5055520;28;20595;-81
2023/01/28 09:37:47;;;;;;;12.50;8.87;;;2.40;91.80;;;;;;5058058;28;20706;-87
2023/01/28 09:40:17;;;;;;;10.57;9.00;;;2.40;91.50;;;;;;5053930;28;20514;-85
2023/01/28 09:42:45;;;;;;;14.37;12.03;;;2.50;91.50;;;;;;5057817;28;20040;-84
2023/01/28 09:45:16;;;;;;;12.18;9.40;;;2.50;91.60;;;;;;5062505;28;20095;-83
2023/01/28 09:47:47;;;;;;;9.77;8.77;;;2.60;91.70;;;;;;5056287;28;20041;-83
2023/01/28 09:50:35;;;;;;;9.90;8.70;;;2.70;91.50;;;;;;5058324;28;20068;-87
2023/01/28 09:53:23;;;;;;;11.90;9.70;;;2.90;91.20;;;;;;5061560;28;20059;-81
2023/01/28 09:56:00;;;;;;;9.98;8.05;;;3.10;91.20;;;;;;5072519;28;20025;-84
2023/01/28 09:58:26;;;;;;;10.40;9.20;;;3.30;91.10;;;;;;5060310;28;20052;-85
2023/01/28 10:01:10;;;;;;;9.20;8.00;;;3.40;90.80;;;;;;5055564;28;20380;-80
2023/01/28 10:04:06;;;;;;;10.47;8.30;;;3.50;89.90;;;;;;5060567;28;20036;-81
2023/01/28 10:07:13;;;;;;;10.13;9.10;;;3.70;90.00;;;;;;5055248;28;20484;-79
2023/01/28 10:10:10;;;;;;;10.27;7.00;;;3.80;88.90;;;;;;5057128;28;20058;-85
2023/01/28 10:12:53;;;;;;;9.93;7.53;;;3.90;88.70;;;;;;5052511;28;20107;-84
2023/01/28 10:15:29;;;;;;;10.88;7.57;;;4.10;89.00;;;;;;5058226;28;20128;-84
2023/01/28 10:18:07;;;;;;;9.20;7.50;;;4.30;88.90;;;;;;5062882;28;20043;-82
2023/01/28 10:20:47;;;;;;;8.90;7.53;;;4.30;87.30;;;;;;5059722;28;20159;-82
2023/01/28 10:23:38;;;;;;;10.32;7.35;;;4.40;88.30;;;;;;5066028;28;20040;-86
2023/01/28 10:26:17;;;;;;;7.65;6.95;;;4.50;87.30;;;;;;5058769;28;20040;-83
2023/01/28 10:28:44;;;;;;;8.15;6.57;;;4.50;87.00;;;;;;5057357;28;20037;-82
2023/01/28 10:31:15;;;;;;;8.55;6.85;;;4.50;86.90;;;;;;5049810;28;20056;-85
2023/01/28 10:33:41;;;;;;;14.50;7.43;;;4.40;87.90;;;;;;5092031;28;20059;-82
2023/01/28 10:36:08;;;;;;;7.35;6.60;;;4.30;87.30;;;;;;5054112;28;20040;-84
2023/01/28 10:38:34;;;;;;;10.73;6.43;;;4.30;87.60;;;;;;5056027;28;20041;-82
2023/01/28 10:41:02;;;;;;;7.38;6.32;;;4.20;87.00;;;;;;5058004;28;20385;-83
2023/01/28 10:43:37;;;;;;;8.27;6.57;;;4.20;87.80;;;;;;5055386;28;20089;-82
2023/01/28 10:46:12;;;;;;;7.28;6.47;;;4.10;88.00;;;;;;5058146;28;20047;-83
2023/01/28 10:48:46;;;;;;;10.02;6.78;;;4.00;87.50;;;;;;5054195;28;20161;-81
2023/01/28 10:51:11;;;;;;;8.30;6.78;;;4.00;88.00;;;;;;5058905;28;20095;-80
2023/01/28 10:53:42;;;;;;;10.02;6.90;;;4.10;88.50;;;;;;5054928;28;20040;-81
2023/01/28 10:56:25;;;;;;;8.38;6.93;;;4.10;87.60;;;;;;5059445;28;20033;-80
2023/01/28 10:59:01;;;;;;;7.90;6.47;;;4.20;87.00;;;;;;5058503;28;20595;-80
2023/01/28 11:01:44;;;;;;;8.05;6.78;;;4.20;86.70;;;;;;5055420;28;20076;-81
2023/01/28 11:04:36;;;;;;;7.50;6.32;;;4.30;86.10;;;;;;5083969;28;20039;-81
2023/01/28 11:07:05;;;;;;;7.55;6.65;;;4.50;85.90;;;;;;5055820;28;20052;-81
2023/01/28 11:09:36;;;;;;;8.60;6.78;;;4.60;85.70;;;;;;5053095;28;20044;-81
2023/01/28 11:12:16;;;;;;;8.70;6.78;;;4.70;85.20;;;;;;5053616;28;20041;-81
2023/01/28 11:14:52;;;;;;;9.70;7.53;;;4.70;84.60;;;;;;5052477;28;20040;-81
2023/01/28 11:17:21;;;;;;;8.48;7.57;;;4.80;84.10;;;;;;5083986;28;20355;-81
2023/01/28 11:19:47;;;;;;;;;;;4.90;85.10;;;;;;5055297;28;20093;-80
2023/01/28 11:22:40;;;;;;;8.52;7.60;;;5.10;84.60;;;;;;5052604;28;19925;-80
2023/01/28 11:25:32;;;;;;;8.50;7.60;;;5.30;84.50;;;;;;5054764;28;20045;-80
2023/01/28 11:28:00;;;;;;;9.65;6.90;;;5.40;83.50;;;;;;5057751;28;20072;-80
2023/01/28 11:30:29;;;;;;;11.10;6.47;;;5.50;84.60;;;;;;5052903;28;20037;-83
2023/01/28 11:33:04;;;;;;;;;;;5.50;84.10;;;;;;5054791;28;20065;-81
2023/01/28 11:35:30;;;;;;;8.05;7.25;;;5.40;82.20;;;;;;5051738;28;20322;-82
2023/01/28 11:37:57;;;;;;;9.77;7.07;;;5.30;83.70;;;;;;5051615;28;20031;-84
2023/01/28 11:40:23;;;;;;;8.43;7.55;;;5.30;85.00;;;;;;5053816;28;20451;-82
2023/01/28 11:42:51;;;;;;;9.25;7.78;;;5.30;84.60;;;;;;5050274;28;20048;-81
2023/01/28 11:45:25;;;;;;;11.83;7.90;;;5.40;84.60;;;;;;5054085;28;20040;-82
2023/01/28 11:48:12;;;;;;;12.15;9.00;;;5.30;84.50;;;;;;5057261;28;20048;-81
2023/01/28 11:50:43;;;;;;;12.60;8.88;;;5.30;84.60;;;;;;5054394;28;20084;-81
2023/01/28 11:53:22;;;;;;;8.85;7.35;;;5.30;84.40;;;;;;5055557;28;20515;-82
2023/01/28 11:56:16;;;;;;;10.73;7.50;;;5.30;84.20;;;;;;5058803;28;20474;-82
2023/01/28 11:59:03;;;;;;;11.98;8.85;;;5.20;83.90;;;;;;5060122;28;20543;-84
2023/01/28 12:01:35;;;;;;;13.57;10.23;;;5.20;84.60;;;;;;5058905;28;20048;-84
2023/01/28 12:04:28;;;;;;;10.18;8.15;;;5.30;85.10;;;;;;5058698;28;20135;-81
2023/01/28 12:07:05;;;;;;;12.35;8.82;;;5.40;84.80;;;;;;5052920;28;20052;-84
2023/01/28 12:09:44;;;;;;;9.77;8.45;;;5.50;84.90;;;;;;5059177;28;20044;-83
2023/01/28 12:12:35;;;;;;;11.27;9.25;;;5.60;84.50;;;;;;5058389;28;20036;-80
2023/01/28 12:15:22;;;;;;;9.30;8.07;;;5.50;83.60;;;;;;5053127;28;20509;-79
2023/01/28 12:17:59;;;;;;;10.88;7.60;;;5.50;84.50;;;;;;5059528;28;20043;-78
2023/01/28 12:20:45;;;;;;;10.93;7.97;;;5.50;84.40;;;;;;5062343;28;20514;-79
2023/01/28 12:23:29;;;;;;;10.90;8.43;;;5.50;84.60;;;;;;5062011;28;21014;-79
2023/01/28 12:25:55;;;;;;;10.40;9.02;;;5.50;84.80;;;;;;5066968;28;20043;-77
2023/01/28 12:28:20;;;;;;;11.70;8.23;;;5.40;85.60;;;;;;5064724;28;20436;-80
2023/01/28 12:31:04;;;;;;;27.50;12.02;;;5.40;85.00;;;;;;5066478;28;20492;-80
2023/01/28 12:33:56;;;;;;;11.77;9.60;;;5.30;85.50;;;;;;5048375;28;20427;-79
2023/01/28 12:36:34;;;;;;;14.73;10.27;;;5.20;86.00;;;;;;5060951;28;20127;-77
2023/01/28 12:39:31;;;;;;;12.05;9.25;;;5.10;86.30;;;;;;5064991;28;20049;-80
2023/01/28 12:42:20;;;;;;;13.18;9.00;;;5.00;86.50;;;;;;5046584;28;20044;-79
2023/01/28 12:44:51;;;;;;;11.30;9.20;;;5.00;86.50;;;;;;5024728;28;20065;-78
2023/01/28 12:47:24;;;;;;;13.57;9.18;;;5.10;86.50;;;;;;5098303;28;20032;-80
2023/01/28 12:49:54;;;;;;;10.23;9.07;;;5.20;86.40;;;;;;5060859;28;20158;-79
2023/01/28 12:52:33;;;;;;;14.45;10.15;;;5.30;85.80;;;;;;5077081;28;20049;-78
2023/01/28 12:55:34;;;;;;;13.07;10.18;;;5.40;85.80;;;;;;5062835;28;20048;-81
2023/01/28 12:58:02;;;;;;;9.70;7.78;;;5.50;85.80;;;;;;5060463;28;20049;-80
2023/01/28 13:00:32;;;;;;;12.93;9.95;;;5.40;85.20;;;;;;5098505;28;20060;-79
2023/01/28 13:03:19;;;;;;;11.40;7.75;;;5.50;85.50;;;;;;5045343;28;20100;-77
2023/01/28 13:06:22;;;;;;;18.73;12.88;;;5.60;85.40;;;;;;5064513;28;20055;-78
2023/01/28 13:08:48;;;;;;;16.02;10.98;;;5.50;85.30;;;;;;5091716;28;20082;-78
2023/01/28 13:11:17;;;;;;;14.27;11.15;;;5.60;86.50;;;;;;5062892;28;20048;-78
2023/01/28 13:13:45;;;;;;;20.88;13.48;;;5.70;86.20;;;;;;5063902;28;20059;-78
2023/01/28 13:16:14;;;;;;;14.57;9.13;;;5.80;85.90;;;;;;5044695;28;20120;-77
2023/01/28 13:18:44;;;;;;;14.40;10.40;;;5.70;85.40;;;;;;5047432;28;20036;-77
2023/01/28 13:21:31;;;;;;;15.32;11.02;;;5.60;85.40;;;;;;5063373;28;20244;-77
2023/01/28 13:24:11;;;;;;;11.20;8.45;;;5.50;85.50;;;;;;5061238;28;20044;-78
2023/01/28 13:26:44;;;;;;;14.23;11.07;;;5.60;85.60;;;;;;5064534;28;20056;-78
2023/01/28 13:29:24;;;;;;;11.82;9.35;;;5.60;85.50;;;;;;5063243;28;20036;-78
2023/01/28 13:31:58;;;;;;;11.85;7.97;;;5.60;85.90;;;;;;5065509;28;20106;-78